sensor_id;sensor_type;location;lat;lon;timestamp;P1;durP1;ratioP1;P2;durP2;ratioP2
2860;SDS011;1438;50.922;6.704;2024-03-22T00:00:54;22.90;;;13.77;;
2860;SDS011;1438;50.922;6.704;2024-03-22T00:03:20;26.20;;;15.30;;
2860;SDS011;1438;50.922;6.704;2024-03-22T00:05:46;27.03;;;13.93;;
2860;SDS011;1438;50.922;6.704;2024-03-22T00:08:12;25.45;;;14.45;;
2860;SDS011;1438;50.922;6.704;2024-03-22T00:10:38;34.55;;;15.40;;
2860;SDS011;1438;50.922;6.704;2024-03-22T00:13:04;23.85;;;14.48;;
2860;SDS011;1438;50.922;6.704;2024-03-22T00:15:30;24.67;;;12.93;;
2860;SDS011;1438;50.922;6.704;2024-03-22T00:17:56;27.33;;;14.20;;
2860;SDS011;1438;50.922;6.704;2024-03-22T00:20:22;26.83;;;13.93;;
2860;SDS011;1438;50.922;6.704;2024-03-22T00:22:48;23.60;;;14.70;;
2860;SDS011;1438;50.922;6.704;2024-03-22T00:25:14;24.87;;;13.23;;
2860;SDS011;1438;50.922;6.704;2024-03-22T00:27:40;23.90;;;14.13;;
2860;SDS011;1438;50.922;6.704;2024-03-22T00:30:06;26.77;;;15.13;;
2860;SDS011;1438;50.922;6.704;2024-03-22T00:32:32;21.33;;;13.48;;
2860;SDS011;1438;50.922;6.704;2024-03-22T00:34:58;23.40;;;12.70;;
2860;SDS011;1438;50.922;6.704;2024-03-22T00:37:24;26.43;;;12.73;;
2860;SDS011;1438;50.922;6.704;2024-03-22T00:39:50;23.40;;;13.83;;
2860;SDS011;1438;50.922;6.704;2024-03-22T00:42:16;24.37;;;13.67;;
2860;SDS011;1438;50.922;6.704;2024-03-22T00:44:42;20.57;;;12.53;;
2860;SDS011;1438;50.922;6.704;2024-03-22T00:47:08;20.10;;;13.23;;
2860;SDS011;1438;50.922;6.704;2024-03-22T00:49:34;23.40;;;12.90;;
2860;SDS011;1438;50.922;6.704;2024-03-22T00:52:00;18.63;;;11.67;;
2860;SDS011;1438;50.922;6.704;2024-03-22T00:54:26;19.57;;;12.43;;
2860;SDS011;1438;50.922;6.704;2024-03-22T00:56:52;20.10;;;12.63;;
2860;SDS011;1438;50.922;6.704;2024-03-22T00:59:18;21.07;;;12.93;;
2860;SDS011;1438;50.922;6.704;2024-03-22T01:01:44;24.40;;;12.90;;
2860;SDS011;1438;50.922;6.704;2024-03-22T01:04:10;18.55;;;11.65;;
2860;SDS011;1438;50.922;6.704;2024-03-22T01:06:36;18.67;;;10.50;;
2860;SDS011;1438;50.922;6.704;2024-03-22T01:09:01;21.40;;;11.80;;
2860;SDS011;1438;50.922;6.704;2024-03-22T01:11:28;18.95;;;10.75;;
2860;SDS011;1438;50.922;6.704;2024-03-22T01:13:54;16.63;;;9.43;;
2860;SDS011;1438;50.922;6.704;2024-03-22T01:16:20;17.70;;;10.33;;
2860;SDS011;1438;50.922;6.704;2024-03-22T01:18:46;18.93;;;11.13;;
2860;SDS011;1438;50.922;6.704;2024-03-22T01:21:13;16.58;;;10.48;;
2860;SDS011;1438;50.922;6.704;2024-03-22T01:23:39;19.23;;;9.77;;
2860;SDS011;1438;50.922;6.704;2024-03-22T01:26:05;18.30;;;10.57;;
2860;SDS011;1438;50.922;6.704;2024-03-22T01:28:31;17.43;;;12.50;;
2860;SDS011;1438;50.922;6.704;2024-03-22T01:30:57;19.50;;;10.50;;
2860;SDS011;1438;50.922;6.704;2024-03-22T01:33:23;18.10;;;11.03;;
2860;SDS011;1438;50.922;6.704;2024-03-22T01:35:49;17.63;;;10.17;;
2860;SDS011;1438;50.922;6.704;2024-03-22T01:38:15;16.47;;;10.00;;
2860;SDS011;1438;50.922;6.704;2024-03-22T01:40:41;20.73;;;11.67;;
2860;SDS011;1438;50.922;6.704;2024-03-22T01:43:07;16.50;;;10.43;;
2860;SDS011;1438;50.922;6.704;2024-03-22T01:45:33;18.07;;;9.97;;
2860;SDS011;1438;50.922;6.704;2024-03-22T01:47:59;16.17;;;9.75;;
2860;SDS011;1438;50.922;6.704;2024-03-22T01:50:25;14.30;;;9.90;;
2860;SDS011;1438;50.922;6.704;2024-03-22T01:52:52;16.57;;;10.10;;
2860;SDS011;1438;50.922;6.704;2024-03-22T01:55:18;15.70;;;9.67;;
2860;SDS011;1438;50.922;6.704;2024-03-22T01:57:44;14.03;;;8.03;;
2860;SDS011;1438;50.922;6.704;2024-03-22T02:00:10;17.92;;;9.93;;
2860;SDS011;1438;50.922;6.704;2024-03-22T02:02:36;16.67;;;9.60;;
2860;SDS011;1438;50.922;6.704;2024-03-22T02:05:15;19.60;;;9.50;;
2860;SDS011;1438;50.922;6.704;2024-03-22T02:07:44;13.90;;;9.27;;
2860;SDS011;1438;50.922;6.704;2024-03-22T02:10:10;14.10;;;8.73;;
2860;SDS011;1438;50.922;6.704;2024-03-22T02:12:37;14.90;;;9.32;;
2860;SDS011;1438;50.922;6.704;2024-03-22T02:15:03;15.32;;;9.18;;
2860;SDS011;1438;50.922;6.704;2024-03-22T02:17:29;13.88;;;9.00;;
2860;SDS011;1438;50.922;6.704;2024-03-22T02:19:55;12.85;;;8.77;;
2860;SDS011;1438;50.922;6.704;2024-03-22T02:22:21;18.07;;;9.30;;
2860;SDS011;1438;50.922;6.704;2024-03-22T02:24:47;14.57;;;8.83;;
2860;SDS011;1438;50.922;6.704;2024-03-22T02:27:13;19.67;;;8.83;;
2860;SDS011;1438;50.922;6.704;2024-03-22T02:29:39;16.83;;;8.67;;
2860;SDS011;1438;50.922;6.704;2024-03-22T02:32:06;17.27;;;9.07;;
2860;SDS011;1438;50.922;6.704;2024-03-22T02:34:32;14.13;;;9.88;;
2860;SDS011;1438;50.922;6.704;2024-03-22T02:36:58;14.70;;;9.07;;
2860;SDS011;1438;50.922;6.704;2024-03-22T02:39:24;14.53;;;9.50;;
2860;SDS011;1438;50.922;6.704;2024-03-22T02:41:50;15.68;;;10.00;;
2860;SDS011;1438;50.922;6.704;2024-03-22T02:44:16;17.25;;;8.80;;
2860;SDS011;1438;50.922;6.704;2024-03-22T02:46:42;13.40;;;8.20;;
2860;SDS011;1438;50.922;6.704;2024-03-22T02:49:08;11.53;;;8.73;;
2860;SDS011;1438;50.922;6.704;2024-03-22T02:51:34;14.77;;;8.53;;
2860;SDS011;1438;50.922;6.704;2024-03-22T02:54:00;13.20;;;7.87;;
2860;SDS011;1438;50.922;6.704;2024-03-22T02:56:27;13.07;;;8.20;;
2860;SDS011;1438;50.922;6.704;2024-03-22T02:58:53;11.43;;;8.52;;
2860;SDS011;1438;50.922;6.704;2024-03-22T03:01:19;13.47;;;7.90;;
2860;SDS011;1438;50.922;6.704;2024-03-22T03:03:45;12.57;;;8.23;;
2860;SDS011;1438;50.922;6.704;2024-03-22T03:06:10;13.60;;;8.53;;
2860;SDS011;1438;50.922;6.704;2024-03-22T03:08:38;13.23;;;8.57;;
2860;SDS011;1438;50.922;6.704;2024-03-22T03:11:04;12.23;;;8.63;;
2860;SDS011;1438;50.922;6.704;2024-03-22T03:13:30;11.60;;;7.90;;
2860;SDS011;1438;50.922;6.704;2024-03-22T03:15:56;15.50;;;8.63;;
2860;SDS011;1438;50.922;6.704;2024-03-22T03:18:22;10.43;;;8.10;;
2860;SDS011;1438;50.922;6.704;2024-03-22T03:20:48;10.43;;;7.90;;
2860;SDS011;1438;50.922;6.704;2024-03-22T03:23:14;12.60;;;8.50;;
2860;SDS011;1438;50.922;6.704;2024-03-22T03:25:40;11.40;;;8.40;;
2860;SDS011;1438;50.922;6.704;2024-03-22T03:28:06;11.20;;;7.77;;
2860;SDS011;1438;50.922;6.704;2024-03-22T03:30:35;12.43;;;8.37;;
2860;SDS011;1438;50.922;6.704;2024-03-22T03:33:01;15.77;;;7.88;;
2860;SDS011;1438;50.922;6.704;2024-03-22T03:35:27;12.80;;;9.10;;
2860;SDS011;1438;50.922;6.704;2024-03-22T03:37:54;11.90;;;7.88;;
2860;SDS011;1438;50.922;6.704;2024-03-22T03:40:20;12.40;;;7.70;;
2860;SDS011;1438;50.922;6.704;2024-03-22T03:42:46;15.50;;;8.87;;
2860;SDS011;1438;50.922;6.704;2024-03-22T03:45:12;11.60;;;7.37;;
2860;SDS011;1438;50.922;6.704;2024-03-22T03:47:38;14.17;;;7.80;;
2860;SDS011;1438;50.922;6.704;2024-03-22T03:50:05;13.60;;;8.60;;
2860;SDS011;1438;50.922;6.704;2024-03-22T03:52:31;11.35;;;8.20;;
2860;SDS011;1438;50.922;6.704;2024-03-22T03:54:57;9.37;;;7.13;;
2860;SDS011;1438;50.922;6.704;2024-03-22T03:57:23;11.97;;;8.13;;
2860;SDS011;1438;50.922;6.704;2024-03-22T03:59:49;19.03;;;9.07;;
2860;SDS011;1438;50.922;6.704;2024-03-22T04:02:15;14.60;;;8.90;;
2860;SDS011;1438;50.922;6.704;2024-03-22T04:04:41;16.00;;;9.20;;
2860;SDS011;1438;50.922;6.704;2024-03-22T04:07:07;11.43;;;8.70;;
2860;SDS011;1438;50.922;6.704;2024-03-22T04:09:33;14.77;;;8.63;;
2860;SDS011;1438;50.922;6.704;2024-03-22T04:11:59;16.15;;;9.43;;
2860;SDS011;1438;50.922;6.704;2024-03-22T04:14:26;16.92;;;8.68;;
2860;SDS011;1438;50.922;6.704;2024-03-22T04:16:52;14.60;;;9.23;;
2860;SDS011;1438;50.922;6.704;2024-03-22T04:19:19;13.52;;;8.73;;
2860;SDS011;1438;50.922;6.704;2024-03-22T04:21:45;14.27;;;8.95;;
2860;SDS011;1438;50.922;6.704;2024-03-22T04:24:11;17.35;;;9.25;;
2860;SDS011;1438;50.922;6.704;2024-03-22T04:26:37;14.07;;;9.10;;
2860;SDS011;1438;50.922;6.704;2024-03-22T04:29:03;13.93;;;9.07;;
2860;SDS011;1438;50.922;6.704;2024-03-22T04:31:29;13.77;;;10.70;;
2860;SDS011;1438;50.922;6.704;2024-03-22T04:33:55;13.30;;;9.57;;
2860;SDS011;1438;50.922;6.704;2024-03-22T04:36:21;20.38;;;12.10;;
2860;SDS011;1438;50.922;6.704;2024-03-22T04:38:48;14.60;;;11.20;;
2860;SDS011;1438;50.922;6.704;2024-03-22T04:41:14;17.92;;;10.07;;
2860;SDS011;1438;50.922;6.704;2024-03-22T04:43:40;16.63;;;10.53;;
2860;SDS011;1438;50.922;6.704;2024-03-22T04:46:06;19.83;;;12.80;;
2860;SDS011;1438;50.922;6.704;2024-03-22T04:48:31;17.60;;;10.60;;
2860;SDS011;1438;50.922;6.704;2024-03-22T04:50:57;16.57;;;11.17;;
2860;SDS011;1438;50.922;6.704;2024-03-22T04:53:23;17.50;;;11.17;;
2860;SDS011;1438;50.922;6.704;2024-03-22T04:55:50;15.50;;;11.32;;
2860;SDS011;1438;50.922;6.704;2024-03-22T04:58:20;14.32;;;10.52;;
2860;SDS011;1438;50.922;6.704;2024-03-22T05:00:46;18.48;;;11.63;;
2860;SDS011;1438;50.922;6.704;2024-03-22T05:03:13;18.67;;;12.70;;
2860;SDS011;1438;50.922;6.704;2024-03-22T05:05:39;18.63;;;11.82;;
2860;SDS011;1438;50.922;6.704;2024-03-22T05:08:05;21.63;;;13.23;;
2860;SDS011;1438;50.922;6.704;2024-03-22T05:10:31;18.60;;;13.25;;
2860;SDS011;1438;50.922;6.704;2024-03-22T05:12:57;23.98;;;13.50;;
2860;SDS011;1438;50.922;6.704;2024-03-22T05:15:23;17.23;;;12.10;;
2860;SDS011;1438;50.922;6.704;2024-03-22T05:17:53;17.70;;;14.10;;
2860;SDS011;1438;50.922;6.704;2024-03-22T05:20:19;21.98;;;15.18;;
2860;SDS011;1438;50.922;6.704;2024-03-22T05:22:46;26.17;;;15.10;;
2860;SDS011;1438;50.922;6.704;2024-03-22T05:25:12;26.27;;;18.10;;
2860;SDS011;1438;50.922;6.704;2024-03-22T05:27:40;22.83;;;15.63;;
2860;SDS011;1438;50.922;6.704;2024-03-22T05:30:07;22.15;;;15.65;;
2860;SDS011;1438;50.922;6.704;2024-03-22T05:32:33;24.52;;;15.77;;
2860;SDS011;1438;50.922;6.704;2024-03-22T05:34:59;20.13;;;13.63;;
2860;SDS011;1438;50.922;6.704;2024-03-22T05:37:24;18.77;;;13.60;;
2860;SDS011;1438;50.922;6.704;2024-03-22T05:39:50;24.77;;;16.67;;
2860;SDS011;1438;50.922;6.704;2024-03-22T05:42:16;27.17;;;16.63;;
2860;SDS011;1438;50.922;6.704;2024-03-22T05:44:43;30.77;;;19.30;;
2860;SDS011;1438;50.922;6.704;2024-03-22T05:47:09;26.35;;;18.80;;
2860;SDS011;1438;50.922;6.704;2024-03-22T05:49:35;25.07;;;18.27;;
2860;SDS011;1438;50.922;6.704;2024-03-22T05:52:01;32.73;;;18.67;;
2860;SDS011;1438;50.922;6.704;2024-03-22T05:54:27;31.20;;;19.93;;
2860;SDS011;1438;50.922;6.704;2024-03-22T05:56:53;29.60;;;18.80;;
2860;SDS011;1438;50.922;6.704;2024-03-22T05:59:19;27.40;;;19.33;;
2860;SDS011;1438;50.922;6.704;2024-03-22T06:01:45;28.87;;;20.10;;
2860;SDS011;1438;50.922;6.704;2024-03-22T06:04:11;28.40;;;18.57;;
2860;SDS011;1438;50.922;6.704;2024-03-22T06:06:37;30.83;;;19.50;;
2860;SDS011;1438;50.922;6.704;2024-03-22T06:09:03;27.27;;;18.67;;
2860;SDS011;1438;50.922;6.704;2024-03-22T06:11:32;29.80;;;20.17;;
2860;SDS011;1438;50.922;6.704;2024-03-22T06:13:58;26.57;;;18.47;;
2860;SDS011;1438;50.922;6.704;2024-03-22T06:16:24;26.73;;;18.33;;
2860;SDS011;1438;50.922;6.704;2024-03-22T06:18:50;23.77;;;17.87;;
2860;SDS011;1438;50.922;6.704;2024-03-22T06:21:16;24.13;;;17.47;;
2860;SDS011;1438;50.922;6.704;2024-03-22T06:23:48;25.10;;;16.67;;
2860;SDS011;1438;50.922;6.704;2024-03-22T06:26:13;24.42;;;15.32;;
2860;SDS011;1438;50.922;6.704;2024-03-22T06:28:40;21.05;;;16.23;;
2860;SDS011;1438;50.922;6.704;2024-03-22T06:31:06;23.53;;;15.50;;
2860;SDS011;1438;50.922;6.704;2024-03-22T06:33:32;22.70;;;15.60;;
2860;SDS011;1438;50.922;6.704;2024-03-22T06:35:58;23.57;;;15.03;;
2860;SDS011;1438;50.922;6.704;2024-03-22T06:38:24;25.43;;;15.40;;
2860;SDS011;1438;50.922;6.704;2024-03-22T06:40:50;20.77;;;14.48;;
2860;SDS011;1438;50.922;6.704;2024-03-22T06:43:16;22.90;;;16.50;;
2860;SDS011;1438;50.922;6.704;2024-03-22T06:45:42;22.70;;;14.93;;
2860;SDS011;1438;50.922;6.704;2024-03-22T06:48:08;24.00;;;16.07;;
2860;SDS011;1438;50.922;6.704;2024-03-22T06:50:34;21.93;;;17.20;;
2860;SDS011;1438;50.922;6.704;2024-03-22T06:53:00;23.70;;;15.97;;
2860;SDS011;1438;50.922;6.704;2024-03-22T06:55:26;23.67;;;17.77;;
2860;SDS011;1438;50.922;6.704;2024-03-22T06:57:52;25.70;;;17.77;;
2860;SDS011;1438;50.922;6.704;2024-03-22T07:00:18;30.80;;;19.23;;
2860;SDS011;1438;50.922;6.704;2024-03-22T07:02:44;22.77;;;16.60;;
2860;SDS011;1438;50.922;6.704;2024-03-22T07:05:10;28.10;;;18.37;;
2860;SDS011;1438;50.922;6.704;2024-03-22T07:07:37;28.15;;;19.65;;
2860;SDS011;1438;50.922;6.704;2024-03-22T07:10:03;23.53;;;17.10;;
2860;SDS011;1438;50.922;6.704;2024-03-22T07:12:32;22.00;;;16.40;;
2860;SDS011;1438;50.922;6.704;2024-03-22T07:14:59;31.47;;;16.70;;
2860;SDS011;1438;50.922;6.704;2024-03-22T07:17:25;21.40;;;16.40;;
2860;SDS011;1438;50.922;6.704;2024-03-22T07:19:51;24.20;;;15.40;;
2860;SDS011;1438;50.922;6.704;2024-03-22T07:22:18;20.30;;;14.03;;
2860;SDS011;1438;50.922;6.704;2024-03-22T07:24:44;18.47;;;13.67;;
2860;SDS011;1438;50.922;6.704;2024-03-22T07:27:10;18.00;;;12.30;;
2860;SDS011;1438;50.922;6.704;2024-03-22T07:29:36;16.30;;;11.53;;
2860;SDS011;1438;50.922;6.704;2024-03-22T07:32:02;14.90;;;11.03;;
2860;SDS011;1438;50.922;6.704;2024-03-22T07:34:29;13.70;;;10.27;;
2860;SDS011;1438;50.922;6.704;2024-03-22T07:36:55;15.87;;;10.70;;
2860;SDS011;1438;50.922;6.704;2024-03-22T07:39:21;14.80;;;11.40;;
2860;SDS011;1438;50.922;6.704;2024-03-22T07:41:47;16.73;;;10.53;;
2860;SDS011;1438;50.922;6.704;2024-03-22T07:44:13;15.40;;;8.87;;
2860;SDS011;1438;50.922;6.704;2024-03-22T07:46:39;13.70;;;10.67;;
2860;SDS011;1438;50.922;6.704;2024-03-22T07:49:05;12.87;;;10.00;;
2860;SDS011;1438;50.922;6.704;2024-03-22T07:51:31;14.43;;;10.47;;
2860;SDS011;1438;50.922;6.704;2024-03-22T07:53:57;15.97;;;10.90;;
2860;SDS011;1438;50.922;6.704;2024-03-22T07:56:23;18.70;;;10.93;;
2860;SDS011;1438;50.922;6.704;2024-03-22T07:58:49;14.50;;;10.90;;
2860;SDS011;1438;50.922;6.704;2024-03-22T08:01:15;14.93;;;10.83;;
2860;SDS011;1438;50.922;6.704;2024-03-22T08:03:42;16.53;;;10.73;;
2860;SDS011;1438;50.922;6.704;2024-03-22T08:06:08;14.07;;;11.80;;
2860;SDS011;1438;50.922;6.704;2024-03-22T08:08:34;16.40;;;10.90;;
2860;SDS011;1438;50.922;6.704;2024-03-22T08:11:00;19.20;;;11.43;;
2860;SDS011;1438;50.922;6.704;2024-03-22T08:13:26;13.83;;;10.37;;
2860;SDS011;1438;50.922;6.704;2024-03-22T08:15:52;16.23;;;11.07;;
2860;SDS011;1438;50.922;6.704;2024-03-22T08:18:18;16.17;;;11.43;;
2860;SDS011;1438;50.922;6.704;2024-03-22T08:20:45;19.43;;;11.70;;
2860;SDS011;1438;50.922;6.704;2024-03-22T08:23:11;15.80;;;11.63;;
2860;SDS011;1438;50.922;6.704;2024-03-22T08:25:37;15.70;;;10.10;;
2860;SDS011;1438;50.922;6.704;2024-03-22T08:28:03;17.20;;;11.67;;
2860;SDS011;1438;50.922;6.704;2024-03-22T08:30:29;12.83;;;9.90;;
2860;SDS011;1438;50.922;6.704;2024-03-22T08:32:55;12.97;;;9.40;;
2860;SDS011;1438;50.922;6.704;2024-03-22T08:35:21;15.10;;;10.73;;
2860;SDS011;1438;50.922;6.704;2024-03-22T08:37:47;15.67;;;11.17;;
2860;SDS011;1438;50.922;6.704;2024-03-22T08:40:13;14.87;;;9.80;;
2860;SDS011;1438;50.922;6.704;2024-03-22T08:42:40;19.50;;;11.27;;
2860;SDS011;1438;50.922;6.704;2024-03-22T08:45:07;19.73;;;10.03;;
2860;SDS011;1438;50.922;6.704;2024-03-22T08:47:33;13.43;;;10.17;;
2860;SDS011;1438;50.922;6.704;2024-03-22T08:49:59;14.17;;;10.00;;
2860;SDS011;1438;50.922;6.704;2024-03-22T08:52:25;10.80;;;8.20;;
2860;SDS011;1438;50.922;6.704;2024-03-22T08:54:52;14.30;;;10.30;;
2860;SDS011;1438;50.922;6.704;2024-03-22T08:57:18;12.53;;;8.93;;
2860;SDS011;1438;50.922;6.704;2024-03-22T08:59:44;15.20;;;8.87;;
2860;SDS011;1438;50.922;6.704;2024-03-22T09:02:10;12.80;;;8.80;;
2860;SDS011;1438;50.922;6.704;2024-03-22T09:04:37;15.27;;;8.27;;
2860;SDS011;1438;50.922;6.704;2024-03-22T09:07:03;12.87;;;8.27;;
2860;SDS011;1438;50.922;6.704;2024-03-22T09:09:29;15.80;;;9.57;;
2860;SDS011;1438;50.922;6.704;2024-03-22T09:11:55;16.23;;;8.17;;
2860;SDS011;1438;50.922;6.704;2024-03-22T09:14:21;9.83;;;7.10;;
2860;SDS011;1438;50.922;6.704;2024-03-22T09:16:47;13.13;;;7.83;;
2860;SDS011;1438;50.922;6.704;2024-03-22T09:19:13;9.67;;;7.43;;
2860;SDS011;1438;50.922;6.704;2024-03-22T09:21:39;15.80;;;8.10;;
2860;SDS011;1438;50.922;6.704;2024-03-22T09:24:05;8.57;;;6.73;;
2860;SDS011;1438;50.922;6.704;2024-03-22T09:26:34;12.23;;;6.20;;
2860;SDS011;1438;50.922;6.704;2024-03-22T09:29:00;14.63;;;8.77;;
2860;SDS011;1438;50.922;6.704;2024-03-22T09:31:26;16.30;;;7.30;;
2860;SDS011;1438;50.922;6.704;2024-03-22T09:33:52;13.50;;;7.57;;
2860;SDS011;1438;50.922;6.704;2024-03-22T09:36:18;9.03;;;7.47;;
2860;SDS011;1438;50.922;6.704;2024-03-22T09:38:44;11.40;;;6.87;;
2860;SDS011;1438;50.922;6.704;2024-03-22T09:41:10;11.10;;;8.00;;
2860;SDS011;1438;50.922;6.704;2024-03-22T09:43:38;9.10;;;6.90;;
2860;SDS011;1438;50.922;6.704;2024-03-22T09:46:04;10.63;;;7.70;;
2860;SDS011;1438;50.922;6.704;2024-03-22T09:48:30;11.40;;;8.00;;
2860;SDS011;1438;50.922;6.704;2024-03-22T09:50:57;12.03;;;6.80;;
2860;SDS011;1438;50.922;6.704;2024-03-22T09:53:23;12.70;;;7.37;;
2860;SDS011;1438;50.922;6.704;2024-03-22T09:55:51;12.10;;;6.60;;
2860;SDS011;1438;50.922;6.704;2024-03-22T09:58:22;10.47;;;7.20;;
2860;SDS011;1438;50.922;6.704;2024-03-22T10:00:48;12.53;;;6.77;;
2860;SDS011;1438;50.922;6.704;2024-03-22T10:03:14;15.83;;;7.03;;
2860;SDS011;1438;50.922;6.704;2024-03-22T10:05:40;11.83;;;7.87;;
2860;SDS011;1438;50.922;6.704;2024-03-22T10:08:06;10.90;;;7.93;;
2860;SDS011;1438;50.922;6.704;2024-03-22T10:10:32;13.73;;;7.47;;
2860;SDS011;1438;50.922;6.704;2024-03-22T10:13:02;9.03;;;6.50;;
2860;SDS011;1438;50.922;6.704;2024-03-22T10:15:29;9.90;;;7.63;;
2860;SDS011;1438;50.922;6.704;2024-03-22T10:17:58;9.67;;;6.93;;
2860;SDS011;1438;50.922;6.704;2024-03-22T10:20:24;9.43;;;7.37;;
2860;SDS011;1438;50.922;6.704;2024-03-22T10:22:57;14.50;;;7.53;;
2860;SDS011;1438;50.922;6.704;2024-03-22T10:25:24;11.23;;;7.07;;
2860;SDS011;1438;50.922;6.704;2024-03-22T10:27:51;12.70;;;6.63;;
2860;SDS011;1438;50.922;6.704;2024-03-22T10:30:17;10.30;;;7.53;;
2860;SDS011;1438;50.922;6.704;2024-03-22T10:32:43;19.63;;;7.90;;
2860;SDS011;1438;50.922;6.704;2024-03-22T10:35:13;14.13;;;8.40;;
2860;SDS011;1438;50.922;6.704;2024-03-22T10:37:39;14.27;;;8.50;;
2860;SDS011;1438;50.922;6.704;2024-03-22T10:40:06;12.80;;;9.00;;
2860;SDS011;1438;50.922;6.704;2024-03-22T10:42:36;11.70;;;9.53;;
2860;SDS011;1438;50.922;6.704;2024-03-22T10:45:02;13.67;;;10.07;;
2860;SDS011;1438;50.922;6.704;2024-03-22T10:47:29;16.73;;;9.33;;
2860;SDS011;1438;50.922;6.704;2024-03-22T10:50:04;17.17;;;9.63;;
2860;SDS011;1438;50.922;6.704;2024-03-22T10:52:32;18.83;;;11.57;;
2860;SDS011;1438;50.922;6.704;2024-03-22T10:54:59;16.70;;;11.37;;
2860;SDS011;1438;50.922;6.704;2024-03-22T10:57:25;13.70;;;9.50;;
2860;SDS011;1438;50.922;6.704;2024-03-22T10:59:55;15.87;;;10.37;;
2860;SDS011;1438;50.922;6.704;2024-03-22T11:02:23;15.27;;;10.67;;
2860;SDS011;1438;50.922;6.704;2024-03-22T11:04:58;15.50;;;10.87;;
2860;SDS011;1438;50.922;6.704;2024-03-22T11:07:30;15.10;;;11.60;;
2860;SDS011;1438;50.922;6.704;2024-03-22T11:09:57;14.43;;;11.27;;
2860;SDS011;1438;50.922;6.704;2024-03-22T11:12:26;15.80;;;11.60;;
2860;SDS011;1438;50.922;6.704;2024-03-22T11:14:53;15.63;;;11.80;;
2860;SDS011;1438;50.922;6.704;2024-03-22T11:17:19;17.17;;;12.67;;
2860;SDS011;1438;50.922;6.704;2024-03-22T11:19:49;15.40;;;12.33;;
2860;SDS011;1438;50.922;6.704;2024-03-22T11:22:15;21.37;;;13.93;;
2860;SDS011;1438;50.922;6.704;2024-03-22T11:24:41;13.53;;;11.93;;
2860;SDS011;1438;50.922;6.704;2024-03-22T11:27:07;17.80;;;11.10;;
2860;SDS011;1438;50.922;6.704;2024-03-22T11:29:35;19.70;;;12.50;;
2860;SDS011;1438;50.922;6.704;2024-03-22T11:32:04;19.47;;;14.27;;
2860;SDS011;1438;50.922;6.704;2024-03-22T11:34:30;19.43;;;11.30;;
2860;SDS011;1438;50.922;6.704;2024-03-22T11:36:56;15.00;;;11.97;;
2860;SDS011;1438;50.922;6.704;2024-03-22T11:39:22;16.47;;;13.37;;
2860;SDS011;1438;50.922;6.704;2024-03-22T11:41:47;24.00;;;13.23;;
2860;SDS011;1438;50.922;6.704;2024-03-22T11:44:15;17.90;;;12.93;;
2860;SDS011;1438;50.922;6.704;2024-03-22T11:46:43;20.03;;;14.50;;
2860;SDS011;1438;50.922;6.704;2024-03-22T11:49:10;17.53;;;12.77;;
2860;SDS011;1438;50.922;6.704;2024-03-22T11:51:36;18.10;;;12.80;;
2860;SDS011;1438;50.922;6.704;2024-03-22T11:54:02;20.70;;;14.40;;
2860;SDS011;1438;50.922;6.704;2024-03-22T11:56:29;19.97;;;14.03;;
2860;SDS011;1438;50.922;6.704;2024-03-22T11:59:00;18.17;;;13.90;;
2860;SDS011;1438;50.922;6.704;2024-03-22T12:01:27;20.60;;;13.77;;
2860;SDS011;1438;50.922;6.704;2024-03-22T12:03:53;18.83;;;13.57;;
2860;SDS011;1438;50.922;6.704;2024-03-22T12:06:22;22.57;;;14.10;;
2860;SDS011;1438;50.922;6.704;2024-03-22T12:08:48;19.00;;;13.47;;
2860;SDS011;1438;50.922;6.704;2024-03-22T12:11:14;20.47;;;12.47;;
2860;SDS011;1438;50.922;6.704;2024-03-22T12:13:40;18.97;;;13.20;;
2860;SDS011;1438;50.922;6.704;2024-03-22T12:16:06;22.83;;;14.10;;
2860;SDS011;1438;50.922;6.704;2024-03-22T12:18:32;18.70;;;12.00;;
2860;SDS011;1438;50.922;6.704;2024-03-22T12:20:59;19.43;;;13.13;;
2860;SDS011;1438;50.922;6.704;2024-03-22T12:23:25;20.60;;;12.50;;
2860;SDS011;1438;50.922;6.704;2024-03-22T12:25:51;17.93;;;12.03;;
2860;SDS011;1438;50.922;6.704;2024-03-22T12:28:17;18.20;;;12.53;;
2860;SDS011;1438;50.922;6.704;2024-03-22T12:30:44;16.37;;;13.20;;
2860;SDS011;1438;50.922;6.704;2024-03-22T12:33:10;19.30;;;13.87;;
2860;SDS011;1438;50.922;6.704;2024-03-22T12:35:36;17.63;;;12.07;;
2860;SDS011;1438;50.922;6.704;2024-03-22T12:38:02;21.90;;;13.30;;
2860;SDS011;1438;50.922;6.704;2024-03-22T12:40:29;21.13;;;12.53;;
2860;SDS011;1438;50.922;6.704;2024-03-22T12:42:57;21.53;;;14.43;;
2860;SDS011;1438;50.922;6.704;2024-03-22T12:45:23;22.67;;;14.27;;
2860;SDS011;1438;50.922;6.704;2024-03-22T12:47:49;24.67;;;16.03;;
2860;SDS011;1438;50.922;6.704;2024-03-22T12:50:15;24.37;;;15.00;;
2860;SDS011;1438;50.922;6.704;2024-03-22T12:52:41;21.47;;;14.23;;
2860;SDS011;1438;50.922;6.704;2024-03-22T12:55:09;19.67;;;12.73;;
2860;SDS011;1438;50.922;6.704;2024-03-22T12:57:35;19.77;;;13.60;;
2860;SDS011;1438;50.922;6.704;2024-03-22T13:00:01;20.17;;;13.20;;
2860;SDS011;1438;50.922;6.704;2024-03-22T13:02:30;14.93;;;12.47;;
2860;SDS011;1438;50.922;6.704;2024-03-22T13:04:57;14.33;;;12.50;;
2860;SDS011;1438;50.922;6.704;2024-03-22T13:07:24;17.00;;;13.07;;
2860;SDS011;1438;50.922;6.704;2024-03-22T13:09:50;16.80;;;11.87;;
2860;SDS011;1438;50.922;6.704;2024-03-22T13:12:16;16.10;;;12.30;;
2860;SDS011;1438;50.922;6.704;2024-03-22T13:14:42;18.30;;;12.20;;
2860;SDS011;1438;50.922;6.704;2024-03-22T13:17:09;16.77;;;12.70;;
2860;SDS011;1438;50.922;6.704;2024-03-22T13:19:35;18.60;;;13.30;;
2860;SDS011;1438;50.922;6.704;2024-03-22T13:22:01;17.83;;;13.00;;
2860;SDS011;1438;50.922;6.704;2024-03-22T13:24:27;17.30;;;14.10;;
2860;SDS011;1438;50.922;6.704;2024-03-22T13:26:52;20.70;;;14.67;;
2860;SDS011;1438;50.922;6.704;2024-03-22T13:29:18;23.67;;;13.73;;
2860;SDS011;1438;50.922;6.704;2024-03-22T13:31:44;17.57;;;14.43;;
2860;SDS011;1438;50.922;6.704;2024-03-22T13:34:10;19.33;;;14.10;;
2860;SDS011;1438;50.922;6.704;2024-03-22T13:36:36;20.40;;;15.53;;
2860;SDS011;1438;50.922;6.704;2024-03-22T13:39:03;20.43;;;16.10;;
2860;SDS011;1438;50.922;6.704;2024-03-22T13:41:29;20.17;;;14.63;;
2860;SDS011;1438;50.922;6.704;2024-03-22T13:43:55;21.23;;;14.97;;
2860;SDS011;1438;50.922;6.704;2024-03-22T13:46:21;20.90;;;13.90;;
2860;SDS011;1438;50.922;6.704;2024-03-22T13:48:47;16.47;;;11.60;;
2860;SDS011;1438;50.922;6.704;2024-03-22T13:51:13;17.50;;;12.33;;
2860;SDS011;1438;50.922;6.704;2024-03-22T13:53:39;15.97;;;12.43;;
2860;SDS011;1438;50.922;6.704;2024-03-22T13:56:05;17.33;;;12.70;;
2860;SDS011;1438;50.922;6.704;2024-03-22T13:58:31;16.83;;;12.23;;
2860;SDS011;1438;50.922;6.704;2024-03-22T14:00:57;16.23;;;12.70;;
2860;SDS011;1438;50.922;6.704;2024-03-22T14:03:23;15.70;;;12.93;;
2860;SDS011;1438;50.922;6.704;2024-03-22T14:05:49;19.07;;;11.83;;
2860;SDS011;1438;50.922;6.704;2024-03-22T14:08:15;12.13;;;10.83;;
2860;SDS011;1438;50.922;6.704;2024-03-22T14:10:41;17.60;;;12.10;;
2860;SDS011;1438;50.922;6.704;2024-03-22T14:13:07;15.83;;;12.30;;
2860;SDS011;1438;50.922;6.704;2024-03-22T14:15:34;17.10;;;10.97;;
2860;SDS011;1438;50.922;6.704;2024-03-22T14:18:00;15.60;;;10.90;;
2860;SDS011;1438;50.922;6.704;2024-03-22T14:20:28;14.90;;;11.03;;
2860;SDS011;1438;50.922;6.704;2024-03-22T14:22:54;15.43;;;10.97;;
2860;SDS011;1438;50.922;6.704;2024-03-22T14:25:20;10.03;;;8.20;;
2860;SDS011;1438;50.922;6.704;2024-03-22T14:27:46;15.47;;;9.60;;
2860;SDS011;1438;50.922;6.704;2024-03-22T14:30:13;13.17;;;8.40;;
2860;SDS011;1438;50.922;6.704;2024-03-22T14:32:40;11.47;;;8.90;;
2860;SDS011;1438;50.922;6.704;2024-03-22T14:35:06;10.87;;;8.50;;
2860;SDS011;1438;50.922;6.704;2024-03-22T14:37:33;14.77;;;9.37;;
2860;SDS011;1438;50.922;6.704;2024-03-22T14:39:59;17.13;;;10.73;;
2860;SDS011;1438;50.922;6.704;2024-03-22T14:42:25;17.30;;;9.87;;
2860;SDS011;1438;50.922;6.704;2024-03-22T14:44:51;14.53;;;9.97;;
2860;SDS011;1438;50.922;6.704;2024-03-22T14:47:20;15.00;;;11.20;;